ADDS METAR Data INFO
IDs: Format: Raw Decoded Include TAF

Data at: 1141 UTC 17 Jul 2018

KTDF 171135Z AUTO 20003KT 10SM CLR 21/21 A2999 RMK AO2
KTDF 171115Z AUTO 00000KT 10SM CLR 21/20 A2999 RMK AO2
KTDF 171055Z AUTO 00000KT 10SM CLR 21/20 A2999 RMK AO2
KTDF 171035Z AUTO 00000KT 7SM CLR 20/20 A2999 RMK AO2
KTDF 171015Z AUTO 00000KT 7SM CLR 20/20 A2999 RMK AO2
KTDF 170955Z AUTO 00000KT 7SM CLR 20/20 A2999 RMK AO2
KTDF 170935Z AUTO 00000KT 10SM CLR 21/20 A2999 RMK AO2
KTDF 170915Z AUTO 00000KT 7SM CLR 21/20 A2999 RMK AO2
KTDF 170855Z AUTO 00000KT 10SM CLR 21/20 A2998 RMK AO2
KTDF 170835Z AUTO 00000KT 10SM CLR 21/20 A2999 RMK AO2
KTDF 170815Z AUTO 18003KT 10SM CLR 22/20 A2999 RMK AO2
KTDF 170755Z AUTO 00000KT 10SM CLR 21/20 A3000 RMK AO2
KTDF 170735Z AUTO 00000KT 10SM SCT100 21/20 A3000 RMK AO2
KTDF 170715Z AUTO 00000KT 10SM SCT080 SCT100 22/20 A3001 RMK AO2
KTDF 170655Z AUTO 00000KT 10SM SCT080 21/20 A3002 RMK AO2
KTDF 170635Z AUTO 00000KT 10SM CLR 22/21 A3001 RMK AO2
KTDF 170615Z AUTO 21003KT 10SM CLR 22/21 A3002 RMK AO2
KTDF 170555Z AUTO 00000KT 10SM CLR 22/21 A3002 RMK AO2
KTDF 170535Z AUTO 00000KT 10SM CLR 22/21 A3002 RMK AO2
KTDF 170515Z AUTO 00000KT 10SM CLR 22/21 A3002 RMK AO2
KTDF 170455Z AUTO 00000KT 10SM CLR 22/21 A3002 RMK AO2
KTDF 170435Z AUTO 00000KT 10SM SCT110 22/21 A3002 RMK AO2
KTDF 170415Z AUTO 00000KT 10SM SCT110 22/21 A3002 RMK AO2
KTDF 170355Z AUTO 00000KT 10SM CLR 23/21 A3002 RMK AO2
KTDF 170335Z AUTO 00000KT 10SM CLR 23/20 A3002 RMK AO2
KTDF 170315Z AUTO 00000KT 10SM CLR 24/20 A3002 RMK AO2
KTDF 170255Z AUTO 20003KT 10SM CLR 24/20 A3002 RMK AO2
KTDF 170235Z AUTO 19005KT 10SM CLR 25/20 A3002 RMK AO2
KTDF 170215Z AUTO 18004KT 10SM CLR 25/20 A3002 RMK AO2
KTDF 170155Z AUTO 19005KT 10SM CLR 25/20 A3002 RMK AO2
KTDF 170135Z AUTO 19004KT 10SM CLR 26/21 A3001 RMK AO2
KTDF 170115Z AUTO 20005KT 10SM CLR 26/21 A3001 RMK AO2
KTDF 170055Z AUTO 17003KT 10SM SCT065 26/21 A3001 RMK AO2
KTDF 170035Z AUTO 18004KT 10SM BKN055 26/22 A3000 RMK AO2
KTDF 170015Z AUTO 00000KT 10SM SCT055 26/22 A3000 RMK AO2
KTDF 162355Z AUTO 00000KT 10SM BKN055 BKN065 27/22 A3000 RMK AO2
KTDF 162335Z AUTO 00000KT 10SM BKN050 BKN065 28/22 A2999 RMK AO2
KTDF 162315Z AUTO 12004KT 10SM BKN050 28/22 A2999 RMK AO2
KTDF 162255Z AUTO 13003KT 10SM SCT050 29/22 A2999 RMK AO2
KTDF 162235Z AUTO 11003KT 10SM SCT055 30/22 A2999 RMK AO2
KTDF 162215Z AUTO 00000KT 10SM CLR 29/22 A2998 RMK AO2
KTDF 162155Z AUTO 00000KT 10SM CLR 28/21 A2999 RMK AO2
KTDF 162135Z AUTO 09004KT 10SM CLR 28/22 A3000 RMK AO2
KTDF 162115Z AUTO 00000KT 10SM CLR 28/22 A3000 RMK AO2
KTDF 162055Z AUTO 00000KT 10SM CLR 26/21 A3000 RMK AO2
KTDF 162035Z AUTO 00000KT 10SM CLR 23/21 A3001 RMK AO2
KTDF 162015Z AUTO 10003KT 10SM CLR 23/21 A3002 RMK AO2
KTDF 161955Z AUTO 34005KT 10SM -RA SCT045 SCT055 BKN090 23/20 A3002 RMK AO2
KTDF 161935Z AUTO 31005KT 10SM SCT038 BKN045 BKN055 26/20 A3003 RMK AO2
KTDF 161915Z AUTO 26007KT 10SM BKN040 BKN046 29/21 A3002 RMK AO2
KTDF 161855Z AUTO 19008KT 10SM SCT037 SCT043 31/21 A3002 RMK AO2
KTDF 161835Z AUTO 16005KT 10SM CLR 30/21 A3003 RMK AO2
KTDF 161815Z AUTO 22007KT 10SM CLR 30/20 A3004 RMK AO2
KTDF 161755Z AUTO 22009KT 10SM CLR 30/20 A3005 RMK AO2
KTDF 161735Z AUTO 24007KT 210V270 10SM CLR 30/21 A3005 RMK AO2
KTDF 161715Z AUTO 21007KT 10SM CLR 29/21 A3006 RMK AO2
KTDF 161655Z AUTO 23005KT 10SM CLR 30/22 A3007 RMK AO2
KTDF 161635Z AUTO 23005KT 10SM CLR 29/22 A3007 RMK AO2
KTDF 161615Z AUTO 20006KT 10SM SCT070 28/22 A3007 RMK AO2
KTDF 161555Z AUTO 21006KT 10SM SCT070 28/22 A3007 RMK AO2
KTDF 161535Z AUTO 24005KT 10SM CLR 27/21 A3007 RMK AO2
KTDF 161515Z AUTO 18004KT 10SM CLR 27/21 A3007 RMK AO2
KTDF 161455Z AUTO 21006KT 10SM CLR 27/21 A3007 RMK AO2
KTDF 161435Z AUTO 19003KT 10SM CLR 26/21 A3007 RMK AO2
KTDF 161415Z AUTO 18003KT 10SM CLR 25/21 A3007 RMK AO2
KTDF 161355Z AUTO 19004KT 10SM CLR 25/21 A3007 RMK AO2
KTDF 161335Z AUTO 00000KT 10SM CLR 25/21 A3007 RMK AO2
KTDF 161315Z AUTO 18004KT 10SM SCT002 23/21 A3007 RMK AO2
KTDF 161255Z AUTO 00000KT 10SM CLR 23/20 A3007 RMK AO2
KTDF 161235Z AUTO 21004KT 10SM CLR 23/20 A3007 RMK AO2
KTDF 161215Z AUTO 21003KT 10SM CLR 23/20 A3007 RMK AO2
KTDF 161155Z AUTO 00000KT 10SM CLR 22/20 A3006 RMK AO2
KTDF 161135Z AUTO 00000KT 10SM CLR 22/20 A3007 RMK AO2
KTDF 161115Z AUTO 00000KT 10SM CLR 22/20 A3007 RMK AO2
KTDF 161055Z AUTO 00000KT 10SM CLR 22/20 A3007 RMK AO2
KTDF 161035Z AUTO 00000KT 10SM CLR 21/20 A3006 RMK AO2
KTDF 161015Z AUTO 00000KT 10SM CLR 21/20 A3006 RMK AO2
KTDF 160955Z AUTO 00000KT 10SM CLR 22/20 A3006 RMK AO2
KTDF 160935Z AUTO 00000KT 10SM CLR 22/20 A3005 RMK AO2
KTDF 160915Z AUTO 00000KT 10SM CLR 22/20 A3005 RMK AO2
KTDF 160855Z AUTO 00000KT 10SM CLR 23/20 A3005 RMK AO2
KTDF 160835Z AUTO 18004KT 10SM CLR 23/20 A3005 RMK AO2
KTDF 160815Z AUTO 18003KT 10SM CLR 23/20 A3005 RMK AO2
KTDF 160755Z AUTO 18003KT 10SM CLR 23/20 A3005 RMK AO2
KTDF 160735Z AUTO 19004KT 10SM CLR 23/20 A3005 RMK AO2
KTDF 160715Z AUTO 19004KT 10SM CLR 23/20 A3006 RMK AO2
KTDF 160655Z AUTO 19005KT 10SM CLR 23/20 A3006 RMK AO2
KTDF 160635Z AUTO 18005KT 10SM CLR 23/20 A3006 RMK AO2
KTDF 160615Z AUTO 18004KT 10SM CLR 24/20 A3006 RMK AO2
KTDF 160555Z AUTO 19005KT 10SM CLR 24/20 A3007 RMK AO2
KTDF 160535Z AUTO 19005KT 10SM CLR 25/20 A3007 RMK AO2
KTDF 160515Z AUTO 18004KT 10SM CLR 25/20 A3007 RMK AO2
KTDF 160455Z AUTO 19004KT 10SM CLR 25/20 A3007 RMK AO2
KTDF 160435Z AUTO 00000KT 10SM CLR 24/20 A3007 RMK AO2
KTDF 160415Z AUTO 00000KT 10SM SCT065 24/20 A3007 RMK AO2
KTDF 160355Z AUTO 00000KT 10SM BKN065 23/21 A3007 RMK AO2
KTDF 160335Z AUTO 00000KT 10SM SCT065 23/21 A3007 RMK AO2
KTDF 160315Z AUTO 00000KT 10SM CLR 23/21 A3006 RMK AO2
KTDF 160255Z AUTO 00000KT 10SM CLR 22/21 A3006 RMK AO2
KTDF 160235Z AUTO 00000KT 10SM CLR 24/21 A3005 RMK AO2
KTDF 160215Z AUTO 00000KT 10SM CLR 23/21 A3005 RMK AO2
KTDF 160155Z AUTO 00000KT 10SM CLR 24/21 A3005 RMK AO2
KTDF 160135Z AUTO 00000KT 10SM CLR 24/21 A3004 RMK AO2
KTDF 160115Z AUTO 00000KT 10SM CLR 25/21 A3004 RMK AO2
KTDF 160055Z AUTO 00000KT 10SM CLR 26/21 A3004 RMK AO2
KTDF 160035Z AUTO 00000KT 10SM CLR 27/20 A3003 RMK AO2
KTDF 160015Z AUTO 00000KT 10SM CLR 28/20 A3002 RMK AO2
KTDF 152355Z AUTO 00000KT 10SM CLR 28/20 A3002 RMK AO2